Time;durP1;ratioP1;P1;durP2;ratioP2;P2;SDS_P1;SDS_P2;PMS_P1;PMS_P2;Temp;Humidity;BMP_temperature;BMP_pressure;BME280_temperature;BME280_humidity;BME280_pressure;Samples;Min_cycle;Max_cycle;Signal;HPM_P1;HPM_P2
2024/01/05 06:16:34;;;;;;;;;;;;;;;-7.43;100.00;98770.34;1854128;75;20098;-70
2024/01/05 06:19:02;;;;;;;;;;;;;;;-7.46;100.00;98758.55;1805613;78;20127;-73
2024/01/05 06:21:29;;;;;;;;;;;;;;;-7.39;100.00;98755.57;1799001;80;20123;-79
2024/01/05 06:23:55;;;;;;;;;;;;;;;-7.32;100.00;98758.91;1800072;80;20134;-74
2024/01/05 06:26:24;;;;;;;;;;;;;;;-7.26;100.00;98765.21;1804062;78;20416;-75
2024/01/05 06:28:50;;;;;;;;;;;;;;;-7.21;100.00;98768.13;1800234;80;20120;-69
2024/01/05 07:11:22;;;;;;;;;;;;;;;-6.68;100.00;98815.02;1832612;78;20147;-72
2024/01/05 07:13:48;;;;;;;;;;;;;;;-6.63;100.00;98812.45;1830594;78;20151;-67
2024/01/05 07:16:19;;;;;;;;;;;;;;;-6.58;100.00;98818.33;1784739;78;20097;-76
2024/01/05 07:18:55;;;;;;;;;;;;;;;-6.55;100.00;98815.77;1778932;79;20168;-67
2024/01/05 07:21:23;;;;;;;;;;;;;;;-6.51;100.00;98816.17;1753827;82;20193;-69
2024/01/05 07:23:49;;;;;;;;;;;;;;;-6.47;100.00;98825.00;1726709;82;20473;-71
2024/01/05 07:26:23;;;;;;;;;;;;;;;-6.40;100.00;98828.33;1727713;82;20152;-69
2024/01/05 07:28:50;;;;;;;;;;;;;;;-6.31;100.00;98836.26;1725670;82;20172;-66
2024/01/05 07:31:23;;;;;;;;;;;;;;;-6.22;100.00;98839.56;1720556;82;20114;-66
2024/01/05 07:33:51;;;;;;;;;;;;;;;-6.15;100.00;98835.30;1739330;82;20102;-75
2024/01/05 07:36:18;;;;;;;;;;;;;;;-6.08;100.00;98842.00;1749607;82;20236;-67
2024/01/05 07:38:44;;;;;;;;;;;;;;;-6.03;100.00;98842.80;1741159;82;20099;-71
2024/01/05 07:41:16;;;;;;;;;;;;;;;-6.01;100.00;98847.85;1732528;83;20131;-68
2024/01/05 08:10:59;;;;;;;;;;;;;;;-5.72;100.00;98878.80;1731708;81;20122;-72
2024/01/05 08:13:27;;;;;;;;;;;;;;;-5.72;100.00;98876.27;1727130;82;20131;-69
2024/01/05 11:58:31;;;;;;;;;;;;;;;-3.67;100.00;99274.98;1729452;82;20130;-66
2024/01/05 12:00:59;;;;;;;;;;;;;;;-3.66;100.00;99286.42;1725123;82;20156;-70
2024/01/05 12:03:25;;;;;;;;;;;;;;;-3.63;100.00;99295.72;1726230;83;20908;-69
2024/01/05 12:05:54;;;;;;;;;;;;;;;-3.63;100.00;99296.99;1733702;82;20100;-67
2024/01/05 12:13:27;;;;;;;;;;;;;;;-3.64;100.00;99327.95;1740645;82;20099;-68
2024/01/05 12:15:54;;;;;;;;;;;;;;;-3.66;100.00;99327.12;1730105;81;20098;-70
2024/01/05 12:18:26;;;;;;;;;;;;;;;-3.66;100.00;99333.48;1767381;81;20125;-67
2024/01/05 12:20:54;;;;;;;;;;;;;;;-3.64;100.00;99341.10;1751043;81;20143;-69
2024/01/05 12:23:20;;;;;;;;;;;;;;;-3.61;100.00;99334.71;1764355;81;20404;-77
2024/01/05 12:26:04;;;;;;;;;;;;;;;-3.60;100.00;99345.30;1742309;81;20111;-70
2024/01/05 12:28:35;;;;;;;;;;;;;;;-3.61;100.00;99353.36;1755342;81;20105;-69
2024/01/05 12:31:02;;;;;;;;;;;;;;;-3.61;100.00;99350.82;1748310;81;20105;-77
2024/01/05 12:33:31;;;;;;;;;;;;;;;-3.61;100.00;99355.91;1761943;81;20488;-65
2024/01/05 12:35:57;;;;;;;;;;;;;;;-3.60;100.00;99355.05;1754232;81;20163;-68
2024/01/05 12:38:28;;;;;;;;;;;;;;;-3.63;100.00;99363.98;1755435;81;21184;-72
2024/01/05 12:41:08;;;;;;;;;;;;;;;-3.65;100.00;99358.50;1751425;81;20094;-74
2024/01/05 12:43:40;;;;;;;;;;;;;;;-3.66;100.00;99367.83;1751303;81;20160;-69
2024/01/05 12:46:06;;;;;;;;;;;;;;;-3.64;100.00;99379.27;1726884;83;20122;-69
2024/01/05 12:48:33;;;;;;;;;;;;;;;-3.64;100.00;99380.54;1757716;81;20116;-71
2024/01/05 14:12:03;;;;;;;;;;;;;;;-4.08;100.00;99535.58;1741042;82;20166;-67
2024/01/05 14:14:30;;;;;;;;;;;;;;;-4.11;100.00;99526.70;1736030;82;20111;-67
2024/01/05 14:16:57;;;;;;;;;;;;;;;-4.11;100.00;99535.17;1733620;81;20111;-67
2024/01/05 14:19:24;;;;;;;;;;;;;;;-4.11;100.00;99536.86;1735470;81;20132;-69
2024/01/05 14:21:51;;;;;;;;;;;;;;;-4.11;100.00;99538.98;1732811;83;20177;-67
2024/01/05 14:24:17;;;;;;;;;;;;;;;-4.10;100.00;99545.75;1743877;81;20888;-69
2024/01/05 14:26:45;;;;;;;;;;;;;;;-4.09;100.00;99552.95;1748544;82;20142;-69
2024/01/05 14:29:11;;;;;;;;;;;;;;;-4.08;100.00;99552.11;1741188;81;20132;-70
2024/01/05 14:31:38;;;;;;;;;;;;;;;-4.07;100.00;99562.27;1742344;81;20157;-70
2024/01/05 14:34:04;;;;;;;;;;;;;;;-4.07;100.00;99559.73;1742311;81;20144;-71
2024/01/05 14:36:31;;;;;;;;;;;;;;;-4.06;100.00;99561.42;1739562;81;20156;-67
2024/01/05 14:38:58;;;;;;;;;;;;;;;-4.05;100.00;99561.84;1744021;81;20410;-70
2024/01/05 14:41:24;;;;;;;;;;;;;;;-4.02;100.00;99557.59;1739727;81;20128;-68
2024/01/05 14:43:51;;;;;;;;;;;;;;;-4.01;100.00;99561.40;1733830;83;20458;-69
2024/01/05 14:46:17;;;;;;;;;;;;;;;-3.99;100.00;99572.80;1733726;83;20136;-69
2024/01/05 14:48:45;;;;;;;;;;;;;;;-3.98;100.00;99572.80;1733839;83;20124;-68
2024/01/05 14:51:12;;;;;;;;;;;;;;;-3.97;100.00;99573.22;1733384;83;20133;-69
2024/01/05 14:53:39;;;;;;;;;;;;;;;-3.95;100.00;99573.20;1735500;81;20104;-68
